TFY weather

CLOSED [Duplicate] Tarfaya Airport
Tarfaya, LaĆ¢youne (EH) Province, Morocco

Public forecast

Using degrees Celsius for public forecast. Weather courtesy of forecast.io.

METAR (pilot weather report)

Closest report is Hassan I Airport, 50.5 nm (93.5 km) SSW. Retrieved 2019/05/25 21:00 UTC (13 minutes ago):

GMML 252100Z 02014KT 8000 NSC 19/14 Q1015 NOSIG

TAF (pilot weather forecast)

Closest forecast is Hassan I Airport, 50.5 nm (93.5 km) SSW. Retrieved 2019/05/25 18:21 UTC (3 hours ago):

TAF GMML 251700Z 2518/2624 36016KT CAVOK BECMG 2521/2523 BKN020 BECMG 2610/2612 FEW010